fecha-hora | temperatura | viento dirección-velocidad-rachas | humedad | presión

  • 11-04-2019 21:00:00 | 11.40°C | Este-20.00 km/h - 29.00 km/h | 76.00% | 1011.70 hPa
  • 11-04-2019 20:00:00 | 12.50°C | Este-16.00 km/h - 22.00 km/h | 71.00% | 1012.00 hPa
  • 11-04-2019 19:00:00 | 13.10°C | Este-13.00 km/h - 23.00 km/h | 72.00% | 1011.90 hPa
  • 11-04-2019 18:00:00 | 13.30°C | Este-16.00 km/h - 23.00 km/h | 70.00% | 1011.90 hPa
  • 11-04-2019 17:00:00 | 13.60°C | Nordeste-11.00 km/h - 24.00 km/h | 68.00% | 1011.90 hPa
  • 11-04-2019 16:00:00 | 13.70°C | Nordeste-10.00 km/h - 23.00 km/h | 64.00% | 1012.20 hPa
  • 11-04-2019 15:00:00 | 14.00°C | Norte-9.00 km/h - 17.00 km/h | 63.00% | 1012.50 hPa
  • 11-04-2019 14:00:00 | 15.60°C | Noroeste-4.00 km/h - 15.00 km/h | 64.00% | 1012.60 hPa
  • 11-04-2019 13:00:00 | 14.70°C | Oeste-4.00 km/h - 13.00 km/h | 67.00% | 1012.90 hPa
  • 11-04-2019 12:00:00 | 14.30°C | Oeste-5.00 km/h - 9.00 km/h | 68.00% | 1012.50 hPa
  • 11-04-2019 11:00:00 | 12.20°C | Oeste-2.00 km/h - 8.00 km/h | 76.00% | 1012.10 hPa
  • 11-04-2019 10:00:00 | 11.10°C | Oeste-8.00 km/h - 15.00 km/h | 81.00% | 1012.10 hPa
  • 11-04-2019 09:00:00 | 10.10°C | Oeste-4.00 km/h - 8.00 km/h | 83.00% | 1011.70 hPa
  • 11-04-2019 08:00:00 | 9.40°C | Oeste-7.00 km/h - 10.00 km/h | 83.00% | 1011.30 hPa
  • 11-04-2019 07:00:00 | 9.30°C | Oeste-7.00 km/h - 10.00 km/h | 84.00% | 1011.20 hPa
  • 11-04-2019 06:00:00 | 9.50°C | Oeste-5.00 km/h - 8.00 km/h | 84.00% | 1011.40 hPa
  • 11-04-2019 05:00:00 | 9.50°C | Sudoeste-5.00 km/h - 9.00 km/h | 84.00% | 1011.40 hPa
  • 11-04-2019 04:00:00 | 9.70°C | Oeste-6.00 km/h - 8.00 km/h | 82.00% | 1011.20 hPa
  • 11-04-2019 03:00:00 | 10.00°C | Oeste-4.00 km/h - 11.00 km/h | 82.00% | 1011.40 hPa
  • 11-04-2019 02:00:00 | 10.50°C | Noroeste-4.00 km/h - 11.00 km/h | 80.00% | 1011.50 hPa
  • 11-04-2019 01:00:00 | 10.50°C | Sudoeste-3.00 km/h - 7.00 km/h | 79.00% | 1011.40 hPa
  • 11-04-2019 00:00:00 | 10.40°C | Calma-0.00 km/h - 10.00 km/h | 78.00% | 1011.50 hPa
  • 10-04-2019 23:00:00 | 10.90°C | Este-4.00 km/h - 14.00 km/h | 77.00% | 1011.50 hPa
  • 10-04-2019 22:00:00 | 11.20°C | Norte-10.00 km/h - 15.00 km/h | 78.00% | 1011.10 hPa
    • diseño web asturias Información sobre el estado de las mareas, altura de la marejada, temperatura del agua y otros datos de Gijón en Asturias.

      Surf Gijón